Time;durP1;ratioP1;P1;durP2;ratioP2;P2;SDS_P1;SDS_P2;PMS_P1;PMS_P2;Temp;Humidity;BMP_temperature;BMP_pressure;BME280_temperature;BME280_humidity;BME280_pressure;Samples;Min_cycle;Max_cycle;Signal;HPM_P1;HPM_P2
2022/10/08 00:00:01;;;;;;;8.18;4.95;;;;;;;10.33;100.00;100711.31;6347914;28;20046;-75
2022/10/08 00:03:01;;;;;;;6.72;4.90;;;;;;;10.31;100.00;100706.16;6347996;28;20611;-75
2022/10/08 00:06:08;;;;;;;9.50;5.43;;;;;;;10.27;100.00;100700.25;6346590;28;20100;-74
2022/10/08 00:09:08;;;;;;;8.90;4.78;;;;;;;10.21;100.00;100697.94;6345970;28;20039;-74
2022/10/08 00:12:09;;;;;;;8.02;4.60;;;;;;;10.20;100.00;100698.84;6345706;28;20453;-73
2022/10/08 00:15:10;;;;;;;6.88;4.53;;;;;;;10.19;100.00;100689.34;6329056;28;20055;-74
2022/10/08 00:18:11;;;;;;;8.13;4.30;;;;;;;10.14;100.00;100685.28;6346365;28;20518;-75
2022/10/08 00:21:16;;;;;;;11.40;5.13;;;;;;;10.12;100.00;100684.50;6346057;28;20608;-74
2022/10/08 00:24:17;;;;;;;10.88;4.40;;;;;;;10.04;100.00;100682.25;6363205;27;20062;-74
2022/10/08 00:27:22;;;;;;;11.13;4.53;;;;;;;10.05;100.00;100673.53;6346164;28;20063;-74
2022/10/08 00:30:23;;;;;;;8.40;4.60;;;;;;;10.04;100.00;100670.06;6347576;28;20047;-74
2022/10/08 00:33:24;;;;;;;9.38;4.82;;;;;;;10.01;100.00;100674.59;6346311;28;20078;-74
2022/10/08 00:36:27;;;;;;;7.40;5.15;;;;;;;10.01;100.00;100669.41;6348106;27;20097;-74
2022/10/08 00:39:28;;;;;;;7.65;4.68;;;;;;;10.01;100.00;100665.00;6371816;28;20039;-74
2022/10/08 00:42:29;;;;;;;9.55;5.38;;;;;;;9.93;100.00;100661.94;6405911;27;20440;-73
2022/10/08 00:45:29;;;;;;;8.73;4.60;;;;;;;9.92;100.00;100656.78;6353953;28;20047;-74
2022/10/08 00:48:30;;;;;;;9.50;5.13;;;;;;;9.89;100.00;100648.19;6346095;28;20077;-74
2022/10/08 00:51:32;;;;;;;6.95;4.47;;;;;;;9.92;100.00;100660.22;6345908;28;20047;-74
2022/10/08 00:54:33;;;;;;;8.02;5.35;;;;;;;9.90;100.00;100643.81;6346025;28;20048;-74
2022/10/08 00:57:36;;;;;;;7.38;5.05;;;;;;;9.93;100.00;100648.06;6347126;28;20497;-74
2022/10/08 01:00:36;;;;;;;6.85;4.78;;;;;;;9.92;100.00;100649.81;6345763;28;20047;-74
2022/10/08 01:03:37;;;;;;;7.35;4.90;;;;;;;9.87;100.00;100643.97;6346986;28;20123;-74
2022/10/08 01:07:25;;;;;;;6.90;4.70;;;;;;;9.83;100.00;100647.66;6362948;28;20056;-75
2022/10/08 01:10:39;;;;;;;9.95;5.30;;;;;;;9.85;100.00;100635.41;6296242;28;20448;-74
2022/10/08 01:13:48;;;;;;;9.85;4.55;;;;;;;9.80;100.00;100632.16;6299587;28;20412;-74
2022/10/08 01:16:48;;;;;;;9.57;5.43;;;;;;;9.81;100.00;100631.25;6350468;28;20074;-75
2022/10/08 01:20:14;;;;;;;8.27;4.80;;;;;;;9.77;100.00;100637.53;6350071;28;20047;-74
2022/10/08 01:23:54;;;;;;;8.88;4.47;;;;;;;9.69;100.00;100628.31;6351326;28;20044;-74
2022/10/08 01:26:59;;;;;;;7.88;4.68;;;;;;;9.72;100.00;100632.53;6316189;28;20112;-73
2022/10/08 01:30:04;;;;;;;8.52;4.72;;;;;;;9.72;100.00;100634.28;6365234;27;20043;-73
2022/10/08 01:33:16;;;;;;;10.90;5.43;;;;;;;9.71;100.00;100630.00;6376342;27;20132;-74
2022/10/08 01:36:19;;;;;;;7.28;4.10;;;;;;;9.59;100.00;100629.66;6376349;27;20088;-75
2022/10/08 01:39:24;;;;;;;7.43;4.88;;;;;;;9.62;100.00;100626.09;6376618;27;20051;-74
2022/10/08 01:42:30;;;;;;;9.60;4.63;;;;;;;9.61;100.00;100627.81;6375168;27;20053;-73
2022/10/08 01:45:37;;;;;;;11.38;5.28;;;;;;;9.53;100.00;100622.13;6375097;27;20074;-74
2022/10/08 01:48:41;;;;;;;8.40;4.80;;;;;;;9.54;100.00;100626.44;6375375;27;20548;-73
2022/10/08 01:51:51;;;;;;;10.23;5.47;;;;;;;9.53;100.00;100626.50;6375485;27;20043;-75
2022/10/08 01:54:58;;;;;;;9.48;4.90;;;;;;;9.47;100.00;100628.50;6375915;27;20122;-74
2022/10/08 01:58:04;;;;;;;8.88;4.65;;;;;;;9.47;100.00;100628.50;6374719;27;20043;-75
2022/10/08 02:01:12;;;;;;;7.00;4.82;;;;;;;9.40;100.00;100623.66;6374869;27;20039;-75
2022/10/08 02:07:36;;;;;;;8.20;4.68;;;;;;;9.33;100.00;100624.84;6376044;27;20047;-75
2022/10/08 02:10:37;;;;;;;8.80;4.78;;;;;;;9.33;100.00;100627.44;6374577;27;20364;-74
2022/10/08 02:13:40;;;;;;;6.63;4.53;;;;;;;9.34;100.00;100618.72;6375830;27;20059;-75
2022/10/08 02:16:48;;;;;;;8.43;4.43;;;;;;;9.32;100.00;100623.16;6374387;27;20046;-75
2022/10/08 02:19:55;;;;;;;8.15;4.85;;;;;;;9.31;100.00;100624.94;6374232;27;20498;-75
2022/10/08 02:23:22;;;;;;;8.43;5.00;;;;;;;9.36;100.00;100627.31;6373152;27;20125;-74
2022/10/08 02:26:31;;;;;;;6.55;3.92;;;;;;;9.35;100.00;100629.09;6374014;27;20133;-74
2022/10/08 02:29:37;;;;;;;7.55;4.90;;;;;;;9.32;100.00;100621.41;6375205;27;20118;-73
2022/10/08 02:32:47;;;;;;;7.38;4.53;;;;;;;9.28;100.00;100625.91;6373863;27;20474;-74
2022/10/08 02:35:56;;;;;;;8.50;4.93;;;;;;;9.25;100.00;100623.44;6374888;27;20039;-73
2022/10/08 02:39:00;;;;;;;7.43;4.47;;;;;;;9.23;100.00;100622.69;6374921;27;20047;-75
2022/10/08 02:42:05;;;;;;;8.80;4.47;;;;;;;9.21;100.00;100618.47;6373831;27;20512;-75
2022/10/08 02:45:13;;;;;;;6.85;4.63;;;;;;;9.17;100.00;100627.31;6373611;27;20046;-75
2022/10/08 02:48:22;;;;;;;5.70;4.13;;;;;;;9.11;100.00;100612.81;6373730;27;20118;-74
2022/10/08 02:51:26;;;;;;;6.43;4.30;;;;;;;9.09;100.00;100614.66;6373449;27;20074;-74
2022/10/08 02:54:32;;;;;;;5.70;4.10;;;;;;;9.12;100.00;100619.75;6374705;27;20046;-75
2022/10/08 02:57:50;;;;;;;7.25;5.03;;;;;;;9.10;100.00;100620.69;6373298;27;20078;-74
2022/10/08 03:01:02;;;;;;;6.10;4.22;;;;;;;9.04;100.00;100612.28;6373257;27;20529;-74
2022/10/08 03:04:08;;;;;;;6.47;3.90;;;;;;;9.07;100.00;100617.31;6373317;27;20498;-73
2022/10/08 03:07:11;;;;;;;7.60;4.30;;;;;;;8.99;100.00;100622.03;6373050;27;20283;-74
2022/10/08 03:10:12;;;;;;;7.65;5.18;;;;;;;8.98;100.00;100622.97;6374240;27;21040;-74
2022/10/08 03:13:13;;;;;;;10.63;6.10;;;;;;;8.98;100.00;100619.53;6372842;27;20458;-74
2022/10/08 03:16:18;;;;;;;10.40;6.03;;;;;;;8.98;100.00;100617.75;6373770;27;20467;-74
2022/10/08 03:19:20;;;;;;;12.85;6.38;;;;;;;8.96;100.00;100619.59;6372513;27;20487;-74
2022/10/08 03:22:24;;;;;;;10.85;6.13;;;;;;;8.96;100.00;100622.19;6373925;27;20062;-74
2022/10/08 03:25:25;;;;;;;10.77;5.63;;;;;;;8.97;100.00;100620.41;6373546;27;20469;-74
2022/10/08 03:28:26;;;;;;;12.05;6.68;;;;;;;8.96;100.00;100623.94;6371939;27;20043;-73
2022/10/08 03:31:26;;;;;;;9.32;5.03;;;;;;;8.88;100.00;100614.72;6373273;27;20038;-74
2022/10/08 03:34:27;;;;;;;10.57;5.95;;;;;;;8.91;100.00;100612.88;6373365;27;20043;-74
2022/10/08 03:37:28;;;;;;;11.15;6.20;;;;;;;8.91;100.00;100618.94;6372303;27;20383;-74
2022/10/08 03:40:29;;;;;;;12.10;5.18;;;;;;;8.89;100.00;100618.16;6373634;27;20047;-74
2022/10/08 03:43:31;;;;;;;11.00;5.50;;;;;;;8.83;100.00;100619.28;6354958;27;20063;-74
2022/10/08 03:46:32;;;;;;;6.80;3.92;;;;;;;8.83;100.00;100605.41;6372478;27;20538;-75
2022/10/08 03:49:33;;;;;;;10.70;5.03;;;;;;;8.79;100.00;100609.94;6372283;27;20115;-75
2022/10/08 03:52:33;;;;;;;7.47;4.63;;;;;;;8.76;100.00;100606.63;6372321;27;20035;-75
2022/10/08 03:55:36;;;;;;;8.00;4.85;;;;;;;8.70;100.00;100607.72;6372431;27;20097;-74
2022/10/08 03:58:37;;;;;;;12.50;5.10;;;;;;;8.65;100.00;100599.31;6355043;27;20108;-75
2022/10/08 04:01:38;;;;;;;8.45;4.32;;;;;;;8.61;100.00;100595.16;6372478;27;20047;-75
2022/10/08 04:04:39;;;;;;;7.07;4.53;;;;;;;8.62;100.00;100602.03;6372222;27;20043;-74
2022/10/08 04:07:39;;;;;;;5.72;3.75;;;;;;;8.64;100.00;100593.22;6371904;28;20039;-74
2022/10/08 04:10:40;;;;;;;8.27;4.45;;;;;;;8.64;100.00;100600.19;6371828;28;20057;-74
2022/10/08 04:13:44;;;;;;;7.47;4.00;;;;;;;8.69;100.00;100593.03;6372992;28;20057;-74
2022/10/08 04:16:47;;;;;;;8.55;5.00;;;;;;;8.68;100.00;100599.97;6373195;27;20164;-74
2022/10/08 04:19:48;;;;;;;6.18;4.22;;;;;;;8.66;100.00;100594.00;6371735;28;20507;-75
2022/10/08 04:22:49;;;;;;;9.02;5.05;;;;;;;8.64;100.00;100592.41;6373458;28;20058;-75
2022/10/08 04:25:51;;;;;;;7.35;4.38;;;;;;;8.62;100.00;100597.66;6372123;28;20043;-75
2022/10/08 04:28:52;;;;;;;8.40;4.95;;;;;;;8.61;100.00;100597.75;6371671;28;20043;-75
2022/10/08 04:31:52;;;;;;;9.82;5.70;;;;;;;8.64;100.00;100597.59;6354623;28;20384;-74
2022/10/08 04:34:55;;;;;;;8.82;5.15;;;;;;;8.53;100.00;100599.84;6373220;28;20475;-75
2022/10/08 04:37:56;;;;;;;7.50;4.70;;;;;;;8.57;100.00;100599.63;6372956;28;20045;-75
2022/10/08 04:41:17;;;;;;;8.20;4.78;;;;;;;8.63;100.00;100590.72;6371654;28;20031;-75
2022/10/08 04:44:18;;;;;;;8.73;4.15;;;;;;;8.72;100.00;100594.66;6355218;27;20465;-75
2022/10/08 04:47:18;;;;;;;8.45;4.55;;;;;;;8.70;100.00;100592.13;6377721;27;20050;-75
2022/10/08 04:50:19;;;;;;;9.98;5.07;;;;;;;8.74;100.00;100591.06;6377688;27;20058;-75
2022/10/08 04:53:20;;;;;;;12.07;5.13;;;;;;;8.72;100.00;100589.47;6410980;27;20069;-75
2022/10/08 04:56:24;;;;;;;13.55;5.80;;;;;;;8.74;100.00;100591.06;6376277;27;20046;-76
2022/10/08 04:59:24;;;;;;;11.27;5.25;;;;;;;8.83;100.00;100589.81;6376903;27;20046;-74
2022/10/08 05:02:25;;;;;;;7.70;4.40;;;;;;;8.87;100.00;100581.81;6376876;27;20078;-75
2022/10/08 05:05:28;;;;;;;9.00;4.82;;;;;;;8.90;100.00;100587.78;6377258;27;20062;-75
2022/10/08 05:08:29;;;;;;;9.88;4.80;;;;;;;8.91;100.00;100581.66;6377181;27;20043;-75
2022/10/08 05:11:32;;;;;;;13.35;5.82;;;;;;;9.03;100.00;100596.72;6377272;27;20055;-74
2022/10/08 05:14:33;;;;;;;8.05;4.45;;;;;;;9.07;100.00;100591.28;6358743;27;20077;-75
2022/10/08 05:17:33;;;;;;;10.75;4.80;;;;;;;9.12;100.00;100588.50;6376987;27;20043;-75
2022/10/08 05:20:35;;;;;;;7.07;4.53;;;;;;;9.22;100.00;100589.72;6376802;27;20559;-75
2022/10/08 05:23:37;;;;;;;6.70;4.38;;;;;;;9.32;100.00;100586.72;6377003;27;20417;-75
2022/10/08 05:26:39;;;;;;;9.55;5.25;;;;;;;9.36;100.00;100599.50;6376954;27;20485;-75
2022/10/08 05:29:39;;;;;;;9.55;5.00;;;;;;;9.40;100.00;100590.63;6375536;27;20058;-75
2022/10/08 05:32:40;;;;;;;13.77;5.05;;;;;;;9.51;100.00;100589.28;6376733;27;20399;-76
2022/10/08 05:35:41;;;;;;;6.82;4.55;;;;;;;9.59;100.00;100594.97;6358456;27;20055;-75
2022/10/08 05:38:45;;;;;;;7.70;5.10;;;;;;;9.64;100.00;100593.00;6376684;27;20046;-75
2022/10/08 05:41:46;;;;;;;6.40;4.78;;;;;;;9.74;100.00;100604.66;6376453;27;20422;-75
2022/10/08 05:44:46;;;;;;;8.65;5.40;;;;;;;9.80;100.00;100606.09;6375532;27;20054;-75
2022/10/08 05:47:47;;;;;;;8.27;4.63;;;;;;;9.84;100.00;100605.03;6370087;27;20070;-75
2022/10/08 05:50:48;;;;;;;12.57;5.55;;;;;;;9.95;100.00;100612.34;6373047;27;20452;-75
2022/10/08 05:53:53;;;;;;;9.73;5.15;;;;;;;10.03;100.00;100624.06;6374628;27;20486;-75
2022/10/08 05:56:53;;;;;;;8.45;4.68;;;;;;;10.12;100.00;100619.31;6374755;27;20471;-75
2022/10/08 05:59:54;;;;;;;6.00;4.28;;;;;;;10.22;100.00;100626.59;6361101;27;20089;-75
2022/10/08 06:02:55;;;;;;;5.90;3.95;;;;;;;10.37;100.00;100621.56;6370194;27;20122;-75
2022/10/08 06:06:01;;;;;;;8.50;4.80;;;;;;;10.54;100.00;100623.28;6362978;27;20422;-75
2022/10/08 06:09:05;;;;;;;8.27;4.85;;;;;;;10.58;100.00;100630.03;6375176;27;20032;-75
2022/10/08 06:12:08;;;;;;;8.65;5.15;;;;;;;10.68;100.00;100631.25;6373977;27;20039;-75
2022/10/08 06:15:09;;;;;;;7.95;5.38;;;;;;;10.79;100.00;100625.44;6373768;27;20418;-75
2022/10/08 06:18:10;;;;;;;9.60;5.75;;;;;;;10.97;100.00;100634.09;6375130;27;20047;-73
2022/10/08 06:21:17;;;;;;;8.60;5.07;;;;;;;11.14;100.00;100630.56;6374548;27;20082;-73
2022/10/08 06:24:18;;;;;;;7.00;4.43;;;;;;;11.36;100.00;100625.84;6340852;27;20048;-73
2022/10/08 06:27:18;;;;;;;9.25;4.28;;;;;;;11.48;100.00;100624.34;6342607;28;20058;-74
2022/10/08 06:30:19;;;;;;;6.47;4.60;;;;;;;11.62;100.00;100626.19;6359740;27;20524;-73
2022/10/08 06:33:20;;;;;;;8.50;5.63;;;;;;;11.80;100.00;100624.31;6374593;27;20070;-73
2022/10/08 06:36:26;;;;;;;13.43;5.75;;;;;;;11.95;100.00;100620.84;6368098;27;20039;-74
2022/10/08 06:39:27;;;;;;;14.48;5.45;;;;;;;12.13;100.00;100629.41;6374289;27;20788;-74
2022/10/08 06:42:27;;;;;;;8.38;4.03;;;;;;;12.27;100.00;100628.56;6360810;27;20051;-74
2022/10/08 06:45:28;;;;;;;12.38;6.07;;;;;;;12.35;100.00;100625.50;6364828;27;20048;-73
2022/10/08 06:48:28;;;;;;;8.55;5.53;;;;;;;12.53;100.00;100619.16;6347264;28;20075;-74
2022/10/08 06:51:32;;;;;;;10.75;5.22;;;;;;;12.77;100.00;100629.94;6347078;28;20484;-74
2022/10/08 06:54:33;;;;;;;9.35;4.90;;;;;;;12.95;100.00;100629.72;6347295;28;20380;-75
2022/10/08 06:57:36;;;;;;;9.98;4.72;;;;;;;13.17;100.00;100630.09;6348411;28;20040;-75
2022/10/08 07:00:39;;;;;;;7.72;4.90;;;;;;;13.36;100.00;100634.19;6347108;28;20032;-74
2022/10/08 07:03:40;;;;;;;6.80;4.03;;;;;;;13.52;100.00;100628.84;6346948;28;20047;-74
2022/10/08 07:06:41;;;;;;;6.97;3.67;;;;;;;13.69;100.00;100624.19;6363798;27;20058;-75
2022/10/08 07:09:42;;;;;;;18.00;4.47;;;;;;;13.83;100.00;100630.31;6346803;28;20110;-75
2022/10/08 07:12:42;;;;;;;5.93;4.03;;;;;;;13.94;100.00;100622.59;6346564;28;20438;-74
2022/10/08 07:15:45;;;;;;;6.70;3.88;;;;;;;14.00;100.00;100623.94;6346591;28;20497;-75
2022/10/08 07:18:48;;;;;;;4.70;3.70;;;;;;;14.15;100.00;100625.56;6346775;28;20475;-75
2022/10/08 07:21:49;;;;;;;11.90;4.63;;;;;;;14.40;100.00;100626.53;6347789;28;20126;-76
2022/10/08 07:24:52;;;;;;;4.57;3.45;;;;;;;14.51;100.00;100624.84;6360367;27;20039;-76
2022/10/08 07:27:53;;;;;;;4.70;3.30;;;;;;;14.74;100.00;100621.59;6372098;27;20039;-74
2022/10/08 07:30:54;;;;;;;4.22;2.83;;;;;;;14.97;100.00;100630.50;6371755;27;20054;-74
2022/10/08 07:33:56;;;;;;;8.93;3.70;;;;;;;15.20;100.00;100628.91;6354814;27;20523;-74
2022/10/08 07:36:57;;;;;;;8.90;3.67;;;;;;;15.37;100.00;100620.63;6373025;27;20060;-75
2022/10/08 07:39:57;;;;;;;4.78;3.15;;;;;;;15.55;100.00;100609.75;6371494;27;20054;-74
2022/10/08 07:42:58;;;;;;;7.32;3.47;;;;;;;15.67;100.00;100620.19;6372714;27;20039;-74
2022/10/08 07:45:59;;;;;;;4.57;3.05;;;;;;;15.81;100.00;100621.81;6371452;27;20551;-75
2022/10/08 07:49:03;;;;;;;4.68;3.20;;;;;;;15.99;100.00;100621.44;6354356;27;20486;-75
2022/10/08 07:52:04;;;;;;;4.93;3.30;;;;;;;16.19;100.00;100612.88;6372549;27;20195;-75
2022/10/08 07:55:07;;;;;;;6.93;3.38;;;;;;;16.34;100.00;100617.94;6371650;27;20039;-75
2022/10/08 07:58:08;;;;;;;5.07;3.40;;;;;;;16.49;100.00;100612.34;6371419;27;20035;-74
2022/10/08 08:01:17;;;;;;;4.95;3.17;;;;;;;16.65;100.00;100617.22;6371249;27;20070;-73
2022/10/08 08:04:18;;;;;;;5.85;2.92;;;;;;;16.82;100.00;100615.97;6372628;27;20092;-76
2022/10/08 08:07:21;;;;;;;4.45;2.78;;;;;;;17.06;100.00;100607.06;6372696;28;20490;-75
2022/10/08 08:10:22;;;;;;;4.15;2.95;;;;;;;17.22;100.00;100609.34;6372133;27;20090;-74
2022/10/08 08:13:25;;;;;;;4.18;2.95;;;;;;;17.46;98.18;100609.13;6371208;28;20039;-75
2022/10/08 08:16:28;;;;;;;3.60;2.85;;;;;;;17.54;94.33;100609.34;6371213;28;20050;-74
2022/10/08 08:19:28;;;;;;;5.80;3.83;;;;;;;17.53;93.97;100612.97;6367256;27;20086;-75
2022/10/08 08:22:29;;;;;;;5.65;3.40;;;;;;;17.71;92.67;100608.00;6354300;27;20047;-75
2022/10/08 08:25:30;;;;;;;12.30;3.75;;;;;;;17.86;89.27;100611.19;6358324;27;20051;-76
2022/10/08 08:28:31;;;;;;;4.70;3.20;;;;;;;18.18;89.65;100616.44;6385200;27;20069;-74
2022/10/08 08:31:37;;;;;;;4.53;2.67;;;;;;;18.44;85.86;100624.78;6363061;27;20043;-75
2022/10/08 08:34:37;;;;;;;4.30;2.22;;;;;;;18.36;80.14;100610.56;6368764;27;20434;-74
2022/10/08 08:37:40;;;;;;;2.83;2.25;;;;;;;18.39;74.79;100608.50;6350165;28;20079;-74
2022/10/08 08:40:41;;;;;;;5.55;2.65;;;;;;;18.59;74.87;100611.22;6350088;28;20116;-74
2022/10/08 08:43:42;;;;;;;5.45;2.40;;;;;;;18.66;74.86;100607.94;6350157;28;20039;-74
2022/10/08 08:46:48;;;;;;;2.88;2.33;;;;;;;18.72;77.11;100614.50;6350276;28;20183;-74
2022/10/08 08:49:54;;;;;;;3.42;2.30;;;;;;;18.85;74.21;100606.38;6337698;27;20047;-75
2022/10/08 08:52:57;;;;;;;3.05;2.25;;;;;;;18.92;74.09;100607.50;6355854;27;20044;-74
2022/10/08 08:56:03;;;;;;;3.72;2.70;;;;;;;19.09;76.25;100606.88;6351104;28;20075;-76
2022/10/08 08:59:21;;;;;;;5.85;2.60;;;;;;;19.22;75.09;100605.78;6349812;28;20056;-76
2022/10/08 09:02:29;;;;;;;4.00;2.97;;;;;;;19.35;76.52;100598.41;6349740;28;20039;-75
2022/10/08 09:05:34;;;;;;;3.30;2.58;;;;;;;19.51;72.14;100595.22;6384205;27;20100;-75
2022/10/08 09:08:56;;;;;;;4.22;2.90;;;;;;;19.65;71.01;100599.28;6337371;27;20070;-75
2022/10/08 09:11:57;;;;;;;5.35;3.08;;;;;;;19.72;69.11;100603.88;6370638;27;20048;-76
2022/10/08 09:15:00;;;;;;;6.93;2.50;;;;;;;19.85;69.53;100597.47;6333594;28;20445;-75
2022/10/08 09:18:06;;;;;;;3.70;2.75;;;;;;;20.09;68.31;100597.03;6363881;27;20043;-76
2022/10/08 09:21:07;;;;;;;4.65;2.75;;;;;;;20.10;69.02;100594.25;6361669;27;20039;-76
2022/10/08 09:24:09;;;;;;;3.43;2.70;;;;;;;20.24;68.25;100595.63;6409549;27;20050;-75
2022/10/08 09:27:14;;;;;;;3.75;2.67;;;;;;;20.39;67.19;100593.34;6375859;27;20091;-77
2022/10/08 09:30:23;;;;;;;2.60;2.40;;;;;;;20.68;66.44;100593.28;6375191;27;20483;-75
2022/10/08 09:33:31;;;;;;;3.42;2.50;;;;;;;20.63;64.83;100584.09;6375509;27;20546;-75
2022/10/08 09:37:04;;;;;;;5.78;2.90;;;;;;;20.69;65.48;100587.00;6357250;27;20055;-76
2022/10/08 09:40:16;;;;;;;3.70;2.28;;;;;;;20.88;63.88;100583.41;6374180;27;20495;-76
2022/10/08 09:43:17;;;;;;;5.43;2.67;;;;;;;20.79;64.46;100578.16;6375424;27;20043;-75
2022/10/08 09:46:30;;;;;;;3.70;2.60;;;;;;;21.14;64.47;100588.00;6391281;27;20447;-75
2022/10/08 09:49:33;;;;;;;3.42;2.38;;;;;;;21.13;60.39;100584.53;6356970;27;20051;-75
2022/10/08 09:52:35;;;;;;;2.92;2.20;;;;;;;21.22;62.38;100580.13;6366730;27;20070;-76
2022/10/08 09:55:36;;;;;;;7.78;2.53;;;;;;;21.21;58.80;100570.53;6363958;27;20050;-74
2022/10/08 09:58:48;;;;;;;9.20;3.30;;;;;;;21.32;57.73;100564.97;6352686;27;20047;-74
2022/10/08 10:01:50;;;;;;;2.88;2.30;;;;;;;21.43;58.08;100557.81;6373355;27;20176;-75
2022/10/08 10:04:55;;;;;;;4.30;2.55;;;;;;;21.46;60.11;100560.19;6371307;27;20070;-75
2022/10/08 10:07:56;;;;;;;5.03;2.65;;;;;;;21.37;58.26;100556.56;6345683;27;20055;-74
2022/10/08 10:10:59;;;;;;;4.18;2.70;;;;;;;21.48;60.37;100552.91;6373542;27;20051;-75
2022/10/08 10:14:11;;;;;;;5.18;2.45;;;;;;;21.38;57.49;100550.28;6356262;27;20480;-75
2022/10/08 10:17:34;;;;;;;5.43;2.97;;;;;;;21.31;58.65;100547.41;6354097;27;20039;-75
2022/10/08 10:20:40;;;;;;;5.38;3.03;;;;;;;21.38;58.93;100539.66;6347714;28;20138;-75
2022/10/08 10:24:01;;;;;;;3.28;2.55;;;;;;;21.73;57.84;100532.69;6382217;27;20111;-75
2022/10/08 10:27:14;;;;;;;4.27;2.97;;;;;;;21.65;55.44;100530.78;6349403;28;20085;-75
2022/10/08 10:30:21;;;;;;;7.60;2.97;;;;;;;21.67;55.68;100526.16;6330658;28;20070;-75
2022/10/08 10:33:31;;;;;;;5.40;2.67;;;;;;;21.87;56.68;100521.50;6367424;27;20108;-76
2022/10/08 10:36:37;;;;;;;3.80;2.78;;;;;;;21.89;54.25;100526.66;6374259;27;20043;-75
2022/10/08 10:40:15;;;;;;;3.75;2.75;;;;;;;21.80;53.37;100509.81;6373135;27;20160;-75
2022/10/08 10:43:27;;;;;;;3.05;2.60;;;;;;;21.97;56.47;100510.78;6371854;27;20051;-75
2022/10/08 10:46:35;;;;;;;6.07;2.75;;;;;;;22.01;56.75;100503.31;6390025;27;20074;-75
2022/10/08 10:49:40;;;;;;;3.08;2.42;;;;;;;22.12;56.14;100500.41;6372749;27;20051;-75
2022/10/08 10:52:53;;;;;;;3.78;2.80;;;;;;;22.26;52.58;100499.00;6372304;27;20043;-74
2022/10/08 10:56:12;;;;;;;3.20;2.67;;;;;;;22.23;52.42;100496.63;6372448;27;20486;-75
2022/10/08 10:59:13;;;;;;;6.40;2.88;;;;;;;22.31;51.49;100491.38;6372410;27;20035;-75
2022/10/08 11:02:37;;;;;;;5.07;2.97;;;;;;;22.38;51.68;100492.41;6372326;27;20043;-75
2022/10/08 11:05:40;;;;;;;6.07;3.17;;;;;;;22.22;52.38;100487.81;6369807;27;20092;-75
2022/10/08 11:08:58;;;;;;;4.95;2.78;;;;;;;22.28;50.57;100470.44;6347951;28;20044;-74
2022/10/08 11:12:19;;;;;;;4.60;2.70;;;;;;;22.30;54.24;100468.47;6357363;27;20420;-74
2022/10/08 11:15:36;;;;;;;4.63;3.42;;;;;;;22.40;54.01;100465.66;6349144;27;20048;-74
2022/10/08 11:18:46;;;;;;;4.88;3.10;;;;;;;22.37;53.21;100471.31;6357926;27;20042;-75
2022/10/08 11:22:19;;;;;;;4.35;3.20;;;;;;;22.22;53.14;100466.56;6361273;27;20054;-75
2022/10/08 11:25:34;;;;;;;6.75;2.97;;;;;;;22.17;53.41;100460.06;6348352;28;20122;-74
2022/10/08 11:28:52;;;;;;;3.97;2.92;;;;;;;22.24;55.50;100463.78;6347104;28;20058;-74
2022/10/08 11:31:53;;;;;;;4.60;2.65;;;;;;;22.21;50.18;100448.13;6362550;27;20043;-74
2022/10/08 11:35:03;;;;;;;3.83;2.72;;;;;;;22.11;51.34;100448.22;6377363;27;20041;-75
2022/10/08 11:38:54;;;;;;;5.15;2.92;;;;;;;22.25;52.70;100442.34;6387224;27;20043;-75
2022/10/08 11:42:19;;;;;;;5.20;3.20;;;;;;;21.84;49.79;100435.97;6352156;27;20474;-75
2022/10/08 11:45:23;;;;;;;5.55;3.22;;;;;;;22.03;49.53;100435.75;6357129;27;20055;-75
2022/10/08 11:48:33;;;;;;;4.28;2.10;;;;;;;22.14;52.67;100432.81;6371680;27;20057;-74
2022/10/08 11:51:36;;;;;;;2.65;2.13;;;;;;;22.28;50.18;100431.41;6346905;28;20091;-74
2022/10/08 11:54:37;;;;;;;4.95;2.50;;;;;;;22.38;50.63;100419.78;6345545;28;20444;-74
2022/10/08 11:57:38;;;;;;;4.90;2.33;;;;;;;22.32;49.91;100426.56;6345827;28;20097;-75
2022/10/08 12:00:45;;;;;;;2.87;2.47;;;;;;;22.27;52.36;100419.09;6345866;28;20043;-75
2022/10/08 12:04:04;;;;;;;4.30;2.60;;;;;;;22.32;52.58;100414.16;6345641;28;20047;-75
2022/10/08 12:07:14;;;;;;;3.60;2.00;;;;;;;22.43;49.85;100404.22;6328740;28;20415;-75
2022/10/08 12:10:18;;;;;;;3.80;2.65;;;;;;;22.50;48.92;100402.56;6345618;28;20047;-75
2022/10/08 12:13:27;;;;;;;5.63;2.70;;;;;;;22.40;48.73;100393.88;6345361;28;20134;-75
2022/10/08 12:16:47;;;;;;;4.25;2.97;;;;;;;22.49;50.79;100390.25;6351209;27;20082;-75
2022/10/08 12:20:03;;;;;;;4.00;2.50;;;;;;;22.47;50.70;100384.28;6354299;28;20050;-75
2022/10/08 12:23:33;;;;;;;3.30;2.50;;;;;;;22.31;52.83;100383.22;6372824;27;20051;-75
2022/10/08 12:26:33;;;;;;;5.03;2.55;;;;;;;22.36;57.63;100387.22;6366159;27;20497;-75
2022/10/08 12:29:54;;;;;;;3.47;2.67;;;;;;;22.07;50.60;100381.31;6354108;28;20055;-75
2022/10/08 12:32:55;;;;;;;2.85;2.47;;;;;;;21.94;50.58;100389.69;6364003;27;20047;-75
2022/10/08 12:36:11;;;;;;;4.88;2.97;;;;;;;21.83;52.95;100384.69;6371896;28;20039;-75
2022/10/08 12:39:35;;;;;;;3.17;2.40;;;;;;;21.73;53.72;100381.31;6371987;28;20039;-76
2022/10/08 12:42:37;;;;;;;3.50;2.15;;;;;;;21.60;56.58;100376.44;6370731;28;20046;-75
2022/10/08 12:45:55;;;;;;;4.97;2.42;;;;;;;21.38;52.28;100371.63;6353337;28;20134;-75
2022/10/08 12:49:14;;;;;;;5.40;2.85;;;;;;;21.47;55.44;100365.38;6370776;28;20062;-74
2022/10/08 12:52:20;;;;;;;6.97;4.32;;;;;;;21.52;55.95;100368.44;6370329;28;20100;-74
2022/10/08 12:55:22;;;;;;;5.22;3.13;;;;;;;21.50;60.83;100375.72;6370479;28;20057;-74
2022/10/08 12:58:34;;;;;;;3.55;2.05;;;;;;;21.50;56.53;100373.88;6370481;28;20064;-74
2022/10/08 13:01:35;;;;;;;3.08;2.28;;;;;;;21.53;58.05;100362.94;6370407;28;20118;-74
2022/10/08 13:04:44;;;;;;;4.73;2.30;;;;;;;21.50;58.54;100368.56;6387495;27;20495;-74
2022/10/08 13:07:44;;;;;;;3.92;2.53;;;;;;;21.55;59.81;100367.28;6357715;27;20058;-74
2022/10/08 13:10:45;;;;;;;3.57;2.67;;;;;;;21.44;55.61;100368.38;6376223;27;20035;-75
2022/10/08 13:13:49;;;;;;;3.60;2.37;;;;;;;21.44;54.65;100360.41;6357627;27;20058;-74
2022/10/08 13:16:50;;;;;;;5.28;2.42;;;;;;;21.48;55.09;100356.47;6376079;27;20034;-74
2022/10/08 13:20:03;;;;;;;6.43;3.25;;;;;;;21.52;56.94;100360.47;6374748;27;20406;-74
2022/10/08 13:23:35;;;;;;;4.00;2.60;;;;;;;21.58;60.82;100351.88;6374712;27;20147;-74
2022/10/08 13:26:47;;;;;;;4.20;2.60;;;;;;;21.48;58.89;100351.16;6374551;27;20109;-75
2022/10/08 13:29:48;;;;;;;5.13;2.60;;;;;;;21.37;58.86;100348.72;6374515;27;20069;-74
2022/10/08 13:32:48;;;;;;;5.07;3.10;;;;;;;21.38;57.85;100350.38;6375615;27;20471;-74
2022/10/08 13:36:01;;;;;;;5.73;2.70;;;;;;;21.39;56.33;100344.91;6374230;27;20047;-75
2022/10/08 13:39:02;;;;;;;4.15;2.30;;;;;;;21.45;61.70;100346.97;6374389;27;20066;-74
2022/10/08 13:42:07;;;;;;;3.53;2.23;;;;;;;21.36;60.56;100339.09;6374300;27;20486;-74
2022/10/08 13:45:16;;;;;;;4.70;2.70;;;;;;;21.23;53.43;100343.00;6374209;27;20403;-74
2022/10/08 13:48:17;;;;;;;3.33;2.58;;;;;;;21.18;54.02;100326.69;6374184;27;20047;-74
2022/10/08 13:51:18;;;;;;;4.53;2.40;;;;;;;21.27;56.09;100333.75;6375370;27;20035;-74
2022/10/08 13:54:22;;;;;;;3.17;2.57;;;;;;;21.17;54.02;100338.31;6373907;27;20077;-74
2022/10/08 13:57:23;;;;;;;5.50;3.67;;;;;;;21.17;54.52;100335.66;6373971;27;20073;-74
2022/10/08 14:00:25;;;;;;;15.17;5.17;;;;;;;21.09;56.43;100335.59;6375043;27;20043;-74
2022/10/08 14:03:25;;;;;;;4.43;3.15;;;;;;;20.85;59.90;100336.25;6373831;27;20475;-74
2022/10/08 14:06:26;;;;;;;6.37;4.03;;;;;;;20.83;60.36;100335.56;6373609;27;20043;-75
2022/10/08 14:09:29;;;;;;;4.83;3.33;;;;;;;20.79;63.74;100339.50;6374892;27;20050;-75
2022/10/08 14:12:32;;;;;;;3.47;2.58;;;;;;;20.46;63.59;100329.41;6374687;27;20431;-74
2022/10/08 14:15:33;;;;;;;3.17;2.60;;;;;;;20.43;64.22;100324.41;6356211;27;20047;-74
2022/10/08 14:18:33;;;;;;;7.57;2.53;;;;;;;20.35;63.32;100331.44;6374727;27;20064;-74
2022/10/08 14:21:38;;;;;;;8.00;3.43;;;;;;;20.33;65.17;100321.00;6356015;27;20545;-75